Abington, Massachusetts
Current Conditions -  °F | °C
As of 6:53 AM on Sunday 21 Dec 2014 (Local Time) from KOWD Reporting Station
Haze Haze  
Wind Chill: 32°   Ceiling: 800
Heat Index: 32°   Visibility: 5mi
Dew Point: 30°   Wind: 3mph
Humidity: 92%   Direction: 340°NNW
Pressure: 30.3"   Gusts: NA
Location:  42.12°N, 70.96°W
Report Text: KOWD 211153Z 34003KT 5SM BR OVC008 00/M01 A3030 RMK AO2 CIG 006V012 SLP262 60001 70001 I1000 I6000 T00001011 10011 20000 53009
Loading
Personal Weather Stations






























Interactive Weather Map New forecast layout! Learn more

10-Day Weather Forecast

Advertisements
Track Severe Weather on mobile